sensor_id;sensor_type;location;lat;lon;timestamp;temperature;humidity
5218;DHT22;26539;51.064;6.346;2023-05-16T00:00:04;12.00;99.90
5218;DHT22;26539;51.064;6.346;2023-05-16T00:02:34;12.00;99.90
5218;DHT22;26539;51.064;6.346;2023-05-16T00:05:02;12.00;99.90
5218;DHT22;26539;51.064;6.346;2023-05-16T00:07:29;12.00;99.90
5218;DHT22;26539;51.064;6.346;2023-05-16T00:09:54;12.00;99.90
5218;DHT22;26539;51.064;6.346;2023-05-16T00:12:21;12.00;99.90
5218;DHT22;26539;51.064;6.346;2023-05-16T00:14:47;12.10;99.90
5218;DHT22;26539;51.064;6.346;2023-05-16T00:17:13;12.10;99.90
5218;DHT22;26539;51.064;6.346;2023-05-16T00:19:38;12.20;99.90
5218;DHT22;26539;51.064;6.346;2023-05-16T00:22:05;12.20;99.90
5218;DHT22;26539;51.064;6.346;2023-05-16T00:24:31;12.20;99.90
5218;DHT22;26539;51.064;6.346;2023-05-16T00:26:57;12.20;99.90
5218;DHT22;26539;51.064;6.346;2023-05-16T00:29:22;12.10;99.90
5218;DHT22;26539;51.064;6.346;2023-05-16T00:31:50;12.10;99.90
5218;DHT22;26539;51.064;6.346;2023-05-16T00:34:16;12.00;29.00
5218;DHT22;26539;51.064;6.346;2023-05-16T00:36:42;11.90;1.00
5218;DHT22;26539;51.064;6.346;2023-05-16T00:39:08;11.90;1.00
5218;DHT22;26539;51.064;6.346;2023-05-16T00:41:35;11.90;1.00
5218;DHT22;26539;51.064;6.346;2023-05-16T00:44:01;11.90;1.00
5218;DHT22;26539;51.064;6.346;2023-05-16T00:46:26;11.90;1.00
5218;DHT22;26539;51.064;6.346;2023-05-16T00:48:52;11.90;1.00
5218;DHT22;26539;51.064;6.346;2023-05-16T00:51:18;11.90;1.00
5218;DHT22;26539;51.064;6.346;2023-05-16T00:53:44;11.80;1.00
5218;DHT22;26539;51.064;6.346;2023-05-16T00:56:09;11.80;1.00
5218;DHT22;26539;51.064;6.346;2023-05-16T00:58:36;11.80;1.00
5218;DHT22;26539;51.064;6.346;2023-05-16T01:01:02;11.80;1.00
5218;DHT22;26539;51.064;6.346;2023-05-16T01:03:30;11.80;1.00
5218;DHT22;26539;51.064;6.346;2023-05-16T01:05:57;11.70;1.00
5218;DHT22;26539;51.064;6.346;2023-05-16T01:08:22;11.60;1.00
5218;DHT22;26539;51.064;6.346;2023-05-16T01:10:59;11.60;1.00
5218;DHT22;26539;51.064;6.346;2023-05-16T01:16:36;11.70;1.00
5218;DHT22;26539;51.064;6.346;2023-05-16T01:19:13;11.60;1.00
5218;DHT22;26539;51.064;6.346;2023-05-16T01:22:02;11.60;1.00
5218;DHT22;26539;51.064;6.346;2023-05-16T01:24:34;11.60;1.00
5218;DHT22;26539;51.064;6.346;2023-05-16T01:27:01;11.60;1.00
5218;DHT22;26539;51.064;6.346;2023-05-16T01:29:29;11.60;1.00
5218;DHT22;26539;51.064;6.346;2023-05-16T01:31:54;11.60;1.00
5218;DHT22;26539;51.064;6.346;2023-05-16T01:34:20;11.60;99.90
5218;DHT22;26539;51.064;6.346;2023-05-16T01:37:16;11.60;99.90
5218;DHT22;26539;51.064;6.346;2023-05-16T01:39:58;11.60;99.90
5218;DHT22;26539;51.064;6.346;2023-05-16T01:42:32;11.50;99.90
5218;DHT22;26539;51.064;6.346;2023-05-16T01:45:15;11.50;99.90
5218;DHT22;26539;51.064;6.346;2023-05-16T01:47:45;11.50;99.90
5218;DHT22;26539;51.064;6.346;2023-05-16T01:50:14;11.50;99.90
5218;DHT22;26539;51.064;6.346;2023-05-16T01:52:45;11.50;99.90
5218;DHT22;26539;51.064;6.346;2023-05-16T01:55:17;11.50;99.90
5218;DHT22;26539;51.064;6.346;2023-05-16T01:57:45;11.50;99.90
5218;DHT22;26539;51.064;6.346;2023-05-16T02:00:13;11.50;99.90
5218;DHT22;26539;51.064;6.346;2023-05-16T02:02:39;11.50;1.00
5218;DHT22;26539;51.064;6.346;2023-05-16T02:05:05;11.50;1.00
5218;DHT22;26539;51.064;6.346;2023-05-16T02:07:30;11.40;1.00
5218;DHT22;26539;51.064;6.346;2023-05-16T02:09:56;11.50;1.00
5218;DHT22;26539;51.064;6.346;2023-05-16T02:12:21;11.50;1.00
5218;DHT22;26539;51.064;6.346;2023-05-16T02:14:47;11.50;99.90
5218;DHT22;26539;51.064;6.346;2023-05-16T02:17:12;11.40;99.90
5218;DHT22;26539;51.064;6.346;2023-05-16T02:19:38;11.40;99.90
5218;DHT22;26539;51.064;6.346;2023-05-16T02:22:03;11.40;63.10
5218;DHT22;26539;51.064;6.346;2023-05-16T02:24:29;11.40;1.00
5218;DHT22;26539;51.064;6.346;2023-05-16T02:26:55;11.40;1.00
5218;DHT22;26539;51.064;6.346;2023-05-16T02:29:20;11.40;1.00
5218;DHT22;26539;51.064;6.346;2023-05-16T02:31:46;11.30;1.00
5218;DHT22;26539;51.064;6.346;2023-05-16T02:34:11;11.30;99.90
5218;DHT22;26539;51.064;6.346;2023-05-16T02:36:36;11.30;99.90
5218;DHT22;26539;51.064;6.346;2023-05-16T02:39:02;11.30;99.90
5218;DHT22;26539;51.064;6.346;2023-05-16T02:41:28;11.30;99.90
5218;DHT22;26539;51.064;6.346;2023-05-16T02:43:54;11.20;99.90
5218;DHT22;26539;51.064;6.346;2023-05-16T02:46:30;11.20;99.90
5218;DHT22;26539;51.064;6.346;2023-05-16T02:48:56;11.10;99.90
5218;DHT22;26539;51.064;6.346;2023-05-16T02:51:24;11.10;80.50
5218;DHT22;26539;51.064;6.346;2023-05-16T02:53:50;11.00;99.90
5218;DHT22;26539;51.064;6.346;2023-05-16T02:56:17;11.00;99.90
5218;DHT22;26539;51.064;6.346;2023-05-16T02:58:45;10.90;99.90
5218;DHT22;26539;51.064;6.346;2023-05-16T03:01:11;10.90;99.90
5218;DHT22;26539;51.064;6.346;2023-05-16T03:03:36;10.90;24.80
5218;DHT22;26539;51.064;6.346;2023-05-16T03:06:02;10.80;1.00
5218;DHT22;26539;51.064;6.346;2023-05-16T03:08:28;10.80;1.00
5218;DHT22;26539;51.064;6.346;2023-05-16T03:10:53;10.70;1.00
5218;DHT22;26539;51.064;6.346;2023-05-16T03:13:19;10.70;1.00
5218;DHT22;26539;51.064;6.346;2023-05-16T03:15:44;10.60;1.00
5218;DHT22;26539;51.064;6.346;2023-05-16T03:18:10;10.60;1.00
5218;DHT22;26539;51.064;6.346;2023-05-16T03:20:36;10.50;1.00
5218;DHT22;26539;51.064;6.346;2023-05-16T03:23:02;10.40;99.90
5218;DHT22;26539;51.064;6.346;2023-05-16T03:25:28;10.40;1.00
5218;DHT22;26539;51.064;6.346;2023-05-16T03:27:53;10.30;1.00
5218;DHT22;26539;51.064;6.346;2023-05-16T03:30:19;10.30;1.00
5218;DHT22;26539;51.064;6.346;2023-05-16T03:32:45;10.20;1.00
5218;DHT22;26539;51.064;6.346;2023-05-16T03:35:10;10.20;1.00
5218;DHT22;26539;51.064;6.346;2023-05-16T03:37:37;10.20;1.00
5218;DHT22;26539;51.064;6.346;2023-05-16T03:40:02;10.10;22.70
5218;DHT22;26539;51.064;6.346;2023-05-16T03:42:31;10.10;99.90
5218;DHT22;26539;51.064;6.346;2023-05-16T03:44:57;10.00;87.30
5218;DHT22;26539;51.064;6.346;2023-05-16T03:47:22;10.00;99.90
5218;DHT22;26539;51.064;6.346;2023-05-16T03:49:48;9.90;99.90
5218;DHT22;26539;51.064;6.346;2023-05-16T03:52:14;9.90;99.90
5218;DHT22;26539;51.064;6.346;2023-05-16T03:54:39;9.80;99.90
5218;DHT22;26539;51.064;6.346;2023-05-16T03:57:05;9.80;99.90
5218;DHT22;26539;51.064;6.346;2023-05-16T03:59:30;9.80;99.90
5218;DHT22;26539;51.064;6.346;2023-05-16T04:01:56;9.80;99.90
5218;DHT22;26539;51.064;6.346;2023-05-16T04:04:21;9.80;99.90
5218;DHT22;26539;51.064;6.346;2023-05-16T04:06:50;9.80;99.90
5218;DHT22;26539;51.064;6.346;2023-05-16T04:09:16;9.80;99.90
5218;DHT22;26539;51.064;6.346;2023-05-16T04:11:41;9.80;99.90
5218;DHT22;26539;51.064;6.346;2023-05-16T04:14:07;9.70;99.90
5218;DHT22;26539;51.064;6.346;2023-05-16T04:16:33;9.70;99.90
5218;DHT22;26539;51.064;6.346;2023-05-16T04:18:58;9.70;99.90
5218;DHT22;26539;51.064;6.346;2023-05-16T04:21:24;9.70;99.90
5218;DHT22;26539;51.064;6.346;2023-05-16T04:23:49;9.70;99.90
5218;DHT22;26539;51.064;6.346;2023-05-16T04:26:15;9.70;99.90
5218;DHT22;26539;51.064;6.346;2023-05-16T04:28:40;9.70;99.90
5218;DHT22;26539;51.064;6.346;2023-05-16T04:31:06;9.80;99.90
5218;DHT22;26539;51.064;6.346;2023-05-16T04:33:32;9.80;99.90
5218;DHT22;26539;51.064;6.346;2023-05-16T04:35:58;9.90;99.90
5218;DHT22;26539;51.064;6.346;2023-05-16T04:38:24;9.90;49.80
5218;DHT22;26539;51.064;6.346;2023-05-16T04:40:50;10.00;1.00
5218;DHT22;26539;51.064;6.346;2023-05-16T04:43:16;10.00;1.00
5218;DHT22;26539;51.064;6.346;2023-05-16T04:45:42;10.00;1.00
5218;DHT22;26539;51.064;6.346;2023-05-16T04:48:07;10.10;99.90
5218;DHT22;26539;51.064;6.346;2023-05-16T04:50:33;10.10;99.90
5218;DHT22;26539;51.064;6.346;2023-05-16T04:52:58;10.20;3.90
5218;DHT22;26539;51.064;6.346;2023-05-16T04:55:24;10.20;1.00
5218;DHT22;26539;51.064;6.346;2023-05-16T04:57:49;10.30;1.00
5218;DHT22;26539;51.064;6.346;2023-05-16T05:00:15;10.40;99.90
5218;DHT22;26539;51.064;6.346;2023-05-16T05:02:41;10.40;99.90
5218;DHT22;26539;51.064;6.346;2023-05-16T05:05:08;10.60;42.60
5218;DHT22;26539;51.064;6.346;2023-05-16T05:07:33;10.70;1.00
5218;DHT22;26539;51.064;6.346;2023-05-16T05:09:59;10.90;99.90
5218;DHT22;26539;51.064;6.346;2023-05-16T05:12:24;11.10;1.00
5218;DHT22;26539;51.064;6.346;2023-05-16T05:14:52;11.20;1.00
5218;DHT22;26539;51.064;6.346;2023-05-16T05:17:19;11.40;99.90
5218;DHT22;26539;51.064;6.346;2023-05-16T05:19:45;11.50;99.90
5218;DHT22;26539;51.064;6.346;2023-05-16T05:22:11;11.70;82.90
5218;DHT22;26539;51.064;6.346;2023-05-16T05:24:36;11.80;1.00
5218;DHT22;26539;51.064;6.346;2023-05-16T05:27:02;11.90;1.00
5218;DHT22;26539;51.064;6.346;2023-05-16T05:29:28;12.00;99.90
5218;DHT22;26539;51.064;6.346;2023-05-16T05:31:54;12.10;99.90
5218;DHT22;26539;51.064;6.346;2023-05-16T05:34:20;12.20;99.90
5218;DHT22;26539;51.064;6.346;2023-05-16T05:36:45;12.30;99.90
5218;DHT22;26539;51.064;6.346;2023-05-16T05:39:11;12.60;99.90
5218;DHT22;26539;51.064;6.346;2023-05-16T05:41:37;13.00;99.90
5218;DHT22;26539;51.064;6.346;2023-05-16T05:44:02;13.40;1.00
5218;DHT22;26539;51.064;6.346;2023-05-16T05:46:28;14.10;1.00
5218;DHT22;26539;51.064;6.346;2023-05-16T05:48:54;15.90;1.00
5218;DHT22;26539;51.064;6.346;2023-05-16T05:51:19;19.30;99.90
5218;DHT22;26539;51.064;6.346;2023-05-16T05:53:45;22.50;99.90
5218;DHT22;26539;51.064;6.346;2023-05-16T05:56:11;25.50;99.90
5218;DHT22;26539;51.064;6.346;2023-05-16T05:58:37;27.80;99.90
5218;DHT22;26539;51.064;6.346;2023-05-16T06:01:03;30.00;99.90
5218;DHT22;26539;51.064;6.346;2023-05-16T06:03:29;31.10;99.90
5218;DHT22;26539;51.064;6.346;2023-05-16T06:05:54;31.60;99.90
5218;DHT22;26539;51.064;6.346;2023-05-16T06:08:20;32.80;99.90
5218;DHT22;26539;51.064;6.346;2023-05-16T06:10:46;34.70;99.90
5218;DHT22;26539;51.064;6.346;2023-05-16T06:13:12;35.00;99.90
5218;DHT22;26539;51.064;6.346;2023-05-16T06:15:37;34.70;99.90
5218;DHT22;26539;51.064;6.346;2023-05-16T06:18:03;35.80;99.90
5218;DHT22;26539;51.064;6.346;2023-05-16T06:20:29;37.50;99.90
5218;DHT22;26539;51.064;6.346;2023-05-16T06:22:54;37.50;99.90
5218;DHT22;26539;51.064;6.346;2023-05-16T06:25:20;39.30;99.90
5218;DHT22;26539;51.064;6.346;2023-05-16T06:27:48;39.70;99.90
5218;DHT22;26539;51.064;6.346;2023-05-16T06:30:14;38.00;99.90
5218;DHT22;26539;51.064;6.346;2023-05-16T06:32:40;36.80;99.90
5218;DHT22;26539;51.064;6.346;2023-05-16T06:35:06;39.10;99.90
5218;DHT22;26539;51.064;6.346;2023-05-16T06:37:33;40.30;99.90
5218;DHT22;26539;51.064;6.346;2023-05-16T06:39:58;42.10;99.90
5218;DHT22;26539;51.064;6.346;2023-05-16T06:42:24;39.50;99.90
5218;DHT22;26539;51.064;6.346;2023-05-16T06:44:49;40.60;99.90
5218;DHT22;26539;51.064;6.346;2023-05-16T06:47:15;41.30;99.90
5218;DHT22;26539;51.064;6.346;2023-05-16T06:49:41;43.30;99.90
5218;DHT22;26539;51.064;6.346;2023-05-16T06:52:06;44.50;99.70
5218;DHT22;26539;51.064;6.346;2023-05-16T06:54:32;46.20;97.90
5218;DHT22;26539;51.064;6.346;2023-05-16T06:56:57;44.10;92.10
5218;DHT22;26539;51.064;6.346;2023-05-16T06:59:23;44.70;90.10
5218;DHT22;26539;51.064;6.346;2023-05-16T07:01:48;45.10;86.80
5218;DHT22;26539;51.064;6.346;2023-05-16T07:04:14;47.60;87.80
5218;DHT22;26539;51.064;6.346;2023-05-16T07:06:39;47.90;82.10
5218;DHT22;26539;51.064;6.346;2023-05-16T07:09:05;50.00;81.40
5218;DHT22;26539;51.064;6.346;2023-05-16T07:11:31;51.00;79.20
5218;DHT22;26539;51.064;6.346;2023-05-16T07:13:57;46.60;60.50
5218;DHT22;26539;51.064;6.346;2023-05-16T07:16:22;42.60;51.90
5218;DHT22;26539;51.064;6.346;2023-05-16T07:18:48;43.20;54.90
5218;DHT22;26539;51.064;6.346;2023-05-16T07:21:14;41.00;47.90
5218;DHT22;26539;51.064;6.346;2023-05-16T07:23:39;36.30;35.50
5218;DHT22;26539;51.064;6.346;2023-05-16T07:26:05;32.10;28.30
5218;DHT22;26539;51.064;6.346;2023-05-16T07:28:31;29.10;23.10
5218;DHT22;26539;51.064;6.346;2023-05-16T07:30:56;26.80;19.60
5218;DHT22;26539;51.064;6.346;2023-05-16T07:33:23;25.50;18.30
5218;DHT22;26539;51.064;6.346;2023-05-16T07:35:49;24.10;16.30
5218;DHT22;26539;51.064;6.346;2023-05-16T07:38:15;23.20;16.20
5218;DHT22;26539;51.064;6.346;2023-05-16T07:40:41;22.90;17.60
5218;DHT22;26539;51.064;6.346;2023-05-16T07:43:06;27.30;31.40
5218;DHT22;26539;51.064;6.346;2023-05-16T07:45:32;27.70;33.30
5218;DHT22;26539;51.064;6.346;2023-05-16T07:47:57;30.80;44.30
5218;DHT22;26539;51.064;6.346;2023-05-16T07:50:24;30.30;41.60
5218;DHT22;26539;51.064;6.346;2023-05-16T07:52:49;31.00;44.40
5218;DHT22;26539;51.064;6.346;2023-05-16T07:55:15;29.70;39.80
5218;DHT22;26539;51.064;6.346;2023-05-16T07:57:41;33.10;51.50
5218;DHT22;26539;51.064;6.346;2023-05-16T08:00:08;38.10;66.90
5218;DHT22;26539;51.064;6.346;2023-05-16T08:02:34;41.80;77.30
5218;DHT22;26539;51.064;6.346;2023-05-16T08:05:00;44.60;79.90
5218;DHT22;26539;51.064;6.346;2023-05-16T08:07:25;46.60;80.40
5218;DHT22;26539;51.064;6.346;2023-05-16T08:09:51;48.20;76.50
5218;DHT22;26539;51.064;6.346;2023-05-16T08:12:17;49.10;71.80
5218;DHT22;26539;51.064;6.346;2023-05-16T08:14:42;49.60;68.90
5218;DHT22;26539;51.064;6.346;2023-05-16T08:17:10;49.00;59.60
5218;DHT22;26539;51.064;6.346;2023-05-16T08:19:38;43.80;45.70
5218;DHT22;26539;51.064;6.346;2023-05-16T08:22:06;39.10;34.10
5218;DHT22;26539;51.064;6.346;2023-05-16T08:24:31;35.70;27.90
5218;DHT22;26539;51.064;6.346;2023-05-16T08:26:57;32.70;23.20
5218;DHT22;26539;51.064;6.346;2023-05-16T08:29:22;30.60;20.60
5218;DHT22;26539;51.064;6.346;2023-05-16T08:31:48;28.80;17.60
5218;DHT22;26539;51.064;6.346;2023-05-16T08:34:13;30.10;23.30
5218;DHT22;26539;51.064;6.346;2023-05-16T08:36:39;30.90;25.60
5218;DHT22;26539;51.064;6.346;2023-05-16T08:39:05;34.90;36.60
5218;DHT22;26539;51.064;6.346;2023-05-16T08:41:31;38.60;46.40
5218;DHT22;26539;51.064;6.346;2023-05-16T08:43:57;39.30;45.80
5218;DHT22;26539;51.064;6.346;2023-05-16T08:46:23;37.60;39.00
5218;DHT22;26539;51.064;6.346;2023-05-16T08:48:52;39.40;45.80
5218;DHT22;26539;51.064;6.346;2023-05-16T08:51:20;37.40;37.50
5218;DHT22;26539;51.064;6.346;2023-05-16T08:54:03;35.40;32.00
5218;DHT22;26539;51.064;6.346;2023-05-16T08:56:30;38.80;42.70
5218;DHT22;26539;51.064;6.346;2023-05-16T08:58:58;41.10;48.00
5218;DHT22;26539;51.064;6.346;2023-05-16T09:01:23;42.80;49.50
5218;DHT22;26539;51.064;6.346;2023-05-16T09:03:49;44.10;50.60
5218;DHT22;26539;51.064;6.346;2023-05-16T09:06:16;44.90;49.70
5218;DHT22;26539;51.064;6.346;2023-05-16T09:08:42;45.30;61.90
5218;DHT22;26539;51.064;6.346;2023-05-16T09:11:08;45.90;48.20
5218;DHT22;26539;51.064;6.346;2023-05-16T09:13:34;46.60;47.30
5218;DHT22;26539;51.064;6.346;2023-05-16T09:16:13;42.30;35.30
5218;DHT22;26539;51.064;6.346;2023-05-16T09:18:43;38.70;27.60
5218;DHT22;26539;51.064;6.346;2023-05-16T09:21:10;35.80;22.00
5218;DHT22;26539;51.064;6.346;2023-05-16T09:23:38;34.40;20.40
5218;DHT22;26539;51.064;6.346;2023-05-16T09:26:06;34.80;23.00
5218;DHT22;26539;51.064;6.346;2023-05-16T09:28:37;37.30;28.90
5218;DHT22;26539;51.064;6.346;2023-05-16T09:31:05;39.30;34.80
5218;DHT22;26539;51.064;6.346;2023-05-16T09:33:43;40.30;36.40
5218;DHT22;26539;51.064;6.346;2023-05-16T09:36:09;41.40;37.80
5218;DHT22;26539;51.064;6.346;2023-05-16T09:38:34;41.40;36.80
5218;DHT22;26539;51.064;6.346;2023-05-16T09:41:01;38.60;28.70
5218;DHT22;26539;51.064;6.346;2023-05-16T09:43:26;36.00;23.60
5218;DHT22;26539;51.064;6.346;2023-05-16T09:45:52;33.00;18.00
5218;DHT22;26539;51.064;6.346;2023-05-16T09:48:20;30.30;13.10
5218;DHT22;26539;51.064;6.346;2023-05-16T09:50:47;28.00;9.30
5218;DHT22;26539;51.064;6.346;2023-05-16T09:53:17;26.30;7.30
5218;DHT22;26539;51.064;6.346;2023-05-16T09:55:43;27.40;11.50
5218;DHT22;26539;51.064;6.346;2023-05-16T09:58:08;29.40;17.60
5218;DHT22;26539;51.064;6.346;2023-05-16T10:00:34;32.20;24.70
5218;DHT22;26539;51.064;6.346;2023-05-16T10:03:00;34.30;29.40
5218;DHT22;26539;51.064;6.346;2023-05-16T10:05:27;35.90;33.20
5218;DHT22;26539;51.064;6.346;2023-05-16T10:07:56;37.20;35.80
5218;DHT22;26539;51.064;6.346;2023-05-16T10:10:23;38.20;37.80
5218;DHT22;26539;51.064;6.346;2023-05-16T10:12:52;39.00;50.70
5218;DHT22;26539;51.064;6.346;2023-05-16T10:15:18;39.50;39.20
5218;DHT22;26539;51.064;6.346;2023-05-16T10:17:49;38.90;36.90
5218;DHT22;26539;51.064;6.346;2023-05-16T10:20:16;36.90;29.90
5218;DHT22;26539;51.064;6.346;2023-05-16T10:22:46;34.80;25.50
5218;DHT22;26539;51.064;6.346;2023-05-16T10:25:35;32.90;21.10
5218;DHT22;26539;51.064;6.346;2023-05-16T10:28:03;31.50;19.20
5218;DHT22;26539;51.064;6.346;2023-05-16T10:30:32;30.70;18.00
5218;DHT22;26539;51.064;6.346;2023-05-16T10:32:58;31.20;20.30
5218;DHT22;26539;51.064;6.346;2023-05-16T10:35:25;32.40;23.60
5218;DHT22;26539;51.064;6.346;2023-05-16T10:37:51;33.80;27.00
5218;DHT22;26539;51.064;6.346;2023-05-16T10:40:17;34.70;28.40
5218;DHT22;26539;51.064;6.346;2023-05-16T10:42:56;35.00;28.80
5218;DHT22;26539;51.064;6.346;2023-05-16T10:45:22;34.90;28.00
5218;DHT22;26539;51.064;6.346;2023-05-16T10:47:52;35.00;28.60
5218;DHT22;26539;51.064;6.346;2023-05-16T10:50:43;34.70;27.60
5218;DHT22;26539;51.064;6.346;2023-05-16T10:53:32;33.50;24.00
5218;DHT22;26539;51.064;6.346;2023-05-16T11:01:29;32.10;21.00
5218;DHT22;26539;51.064;6.346;2023-05-16T11:06:28;28.90;14.50
5218;DHT22;26539;51.064;6.346;2023-05-16T11:11:45;30.40;20.00
5218;DHT22;26539;51.064;6.346;2023-05-16T11:17:02;29.00;17.60
5218;DHT22;26539;51.064;6.346;2023-05-16T11:19:44;29.40;19.40
5218;DHT22;26539;51.064;6.346;2023-05-16T11:24:53;30.60;21.80
5218;DHT22;26539;51.064;6.346;2023-05-16T11:27:21;30.10;20.40
5218;DHT22;26539;51.064;6.346;2023-05-16T11:29:47;30.50;32.70
5218;DHT22;26539;51.064;6.346;2023-05-16T11:32:18;31.10;24.20
5218;DHT22;26539;51.064;6.346;2023-05-16T11:34:44;31.10;23.60
5218;DHT22;26539;51.064;6.346;2023-05-16T11:37:11;30.60;23.30
5218;DHT22;26539;51.064;6.346;2023-05-16T11:39:37;30.00;20.90
5218;DHT22;26539;51.064;6.346;2023-05-16T11:42:02;29.10;20.30
5218;DHT22;26539;51.064;6.346;2023-05-16T11:44:28;29.80;22.50
5218;DHT22;26539;51.064;6.346;2023-05-16T11:46:54;30.40;25.00
5218;DHT22;26539;51.064;6.346;2023-05-16T11:49:20;31.30;27.40
5218;DHT22;26539;51.064;6.346;2023-05-16T11:51:45;32.10;28.80
5218;DHT22;26539;51.064;6.346;2023-05-16T11:54:11;32.70;30.00
5218;DHT22;26539;51.064;6.346;2023-05-16T11:56:38;33.30;30.90
5218;DHT22;26539;51.064;6.346;2023-05-16T11:59:07;33.20;29.80
5218;DHT22;26539;51.064;6.346;2023-05-16T12:01:37;32.10;26.90
5218;DHT22;26539;51.064;6.346;2023-05-16T12:04:11;32.20;27.10
5218;DHT22;26539;51.064;6.346;2023-05-16T12:06:37;32.30;27.00
5218;DHT22;26539;51.064;6.346;2023-05-16T12:09:11;31.70;24.90
5218;DHT22;26539;51.064;6.346;2023-05-16T12:11:41;31.90;25.50
5218;DHT22;26539;51.064;6.346;2023-05-16T12:14:08;32.40;27.00
5218;DHT22;26539;51.064;6.346;2023-05-16T12:16:36;32.90;27.20
5218;DHT22;26539;51.064;6.346;2023-05-16T12:19:03;33.20;27.20
5218;DHT22;26539;51.064;6.346;2023-05-16T12:21:33;33.50;27.60
5218;DHT22;26539;51.064;6.346;2023-05-16T12:23:58;33.90;28.40
5218;DHT22;26539;51.064;6.346;2023-05-16T12:26:30;34.00;27.90
5218;DHT22;26539;51.064;6.346;2023-05-16T12:28:57;34.10;27.60
5218;DHT22;26539;51.064;6.346;2023-05-16T12:31:25;32.90;24.20
5218;DHT22;26539;51.064;6.346;2023-05-16T12:33:54;32.50;23.20
5218;DHT22;26539;51.064;6.346;2023-05-16T12:36:20;32.60;23.10
5218;DHT22;26539;51.064;6.346;2023-05-16T12:38:46;32.70;23.50
5218;DHT22;26539;51.064;6.346;2023-05-16T12:41:17;33.00;24.20
5218;DHT22;26539;51.064;6.346;2023-05-16T12:43:43;33.20;24.40
5218;DHT22;26539;51.064;6.346;2023-05-16T12:46:09;32.70;23.10
5218;DHT22;26539;51.064;6.346;2023-05-16T12:48:36;32.10;21.60
5218;DHT22;26539;51.064;6.346;2023-05-16T12:51:13;31.50;20.60
5218;DHT22;26539;51.064;6.346;2023-05-16T12:53:43;31.20;20.70
5218;DHT22;26539;51.064;6.346;2023-05-16T12:56:10;30.50;19.40
5218;DHT22;26539;51.064;6.346;2023-05-16T12:58:36;29.60;17.60
5218;DHT22;26539;51.064;6.346;2023-05-16T13:01:02;28.70;15.80
5218;DHT22;26539;51.064;6.346;2023-05-16T13:03:28;28.00;14.90
5218;DHT22;26539;51.064;6.346;2023-05-16T13:05:54;27.40;13.90
5218;DHT22;26539;51.064;6.346;2023-05-16T13:08:20;26.70;13.70
5218;DHT22;26539;51.064;6.346;2023-05-16T13:10:45;26.20;13.00
5218;DHT22;26539;51.064;6.346;2023-05-16T13:13:11;25.80;13.00
5218;DHT22;26539;51.064;6.346;2023-05-16T13:15:36;25.50;13.70
5218;DHT22;26539;51.064;6.346;2023-05-16T13:18:02;25.30;13.00
5218;DHT22;26539;51.064;6.346;2023-05-16T13:20:28;25.30;13.50
5218;DHT22;26539;51.064;6.346;2023-05-16T13:22:53;25.90;16.10
5218;DHT22;26539;51.064;6.346;2023-05-16T13:25:20;26.50;18.30
5218;DHT22;26539;51.064;6.346;2023-05-16T13:27:45;27.10;20.00
5218;DHT22;26539;51.064;6.346;2023-05-16T13:30:13;27.40;21.40
5218;DHT22;26539;51.064;6.346;2023-05-16T13:32:39;27.10;20.50
5218;DHT22;26539;51.064;6.346;2023-05-16T13:35:05;26.80;20.00
5218;DHT22;26539;51.064;6.346;2023-05-16T13:37:31;26.40;19.50
5218;DHT22;26539;51.064;6.346;2023-05-16T13:39:57;25.90;19.00
5218;DHT22;26539;51.064;6.346;2023-05-16T13:42:22;25.50;18.80
5218;DHT22;26539;51.064;6.346;2023-05-16T13:44:48;25.20;18.50
5218;DHT22;26539;51.064;6.346;2023-05-16T13:47:14;24.90;18.20
5218;DHT22;26539;51.064;6.346;2023-05-16T13:49:39;24.70;18.50
5218;DHT22;26539;51.064;6.346;2023-05-16T13:52:05;24.40;19.00
5218;DHT22;26539;51.064;6.346;2023-05-16T13:54:31;24.20;18.00
5218;DHT22;26539;51.064;6.346;2023-05-16T13:56:57;23.90;17.40
5218;DHT22;26539;51.064;6.346;2023-05-16T13:59:23;23.70;17.40
5218;DHT22;26539;51.064;6.346;2023-05-16T14:01:48;23.50;17.60
5218;DHT22;26539;51.064;6.346;2023-05-16T14:04:15;23.50;17.20
5218;DHT22;26539;51.064;6.346;2023-05-16T14:06:40;23.50;18.60
5218;DHT22;26539;51.064;6.346;2023-05-16T14:09:06;23.60;18.60
5218;DHT22;26539;51.064;6.346;2023-05-16T14:11:32;23.70;19.90
5218;DHT22;26539;51.064;6.346;2023-05-16T14:13:58;23.80;20.70
5218;DHT22;26539;51.064;6.346;2023-05-16T14:16:24;23.80;21.10
5218;DHT22;26539;51.064;6.346;2023-05-16T14:18:50;23.80;21.10
5218;DHT22;26539;51.064;6.346;2023-05-16T14:21:15;23.70;21.60
5218;DHT22;26539;51.064;6.346;2023-05-16T14:23:41;23.60;21.20
5218;DHT22;26539;51.064;6.346;2023-05-16T14:26:07;23.20;20.80
5218;DHT22;26539;51.064;6.346;2023-05-16T14:28:32;23.00;20.80
5218;DHT22;26539;51.064;6.346;2023-05-16T14:30:58;23.00;21.00
5218;DHT22;26539;51.064;6.346;2023-05-16T14:33:24;23.20;22.00
5218;DHT22;26539;51.064;6.346;2023-05-16T14:35:50;23.50;23.40
5218;DHT22;26539;51.064;6.346;2023-05-16T14:38:16;24.00;24.90
5218;DHT22;26539;51.064;6.346;2023-05-16T14:40:42;24.20;25.50
5218;DHT22;26539;51.064;6.346;2023-05-16T14:43:07;24.20;25.40
5218;DHT22;26539;51.064;6.346;2023-05-16T14:45:33;23.90;25.50
5218;DHT22;26539;51.064;6.346;2023-05-16T14:47:58;23.50;23.90
5218;DHT22;26539;51.064;6.346;2023-05-16T14:50:24;23.20;23.80
5218;DHT22;26539;51.064;6.346;2023-05-16T14:52:50;23.00;22.90
5218;DHT22;26539;51.064;6.346;2023-05-16T14:55:17;22.80;22.40
5218;DHT22;26539;51.064;6.346;2023-05-16T14:57:42;22.70;22.70
5218;DHT22;26539;51.064;6.346;2023-05-16T15:00:08;22.60;23.20
5218;DHT22;26539;51.064;6.346;2023-05-16T15:02:35;22.70;23.40
5218;DHT22;26539;51.064;6.346;2023-05-16T15:05:00;22.70;35.30
5218;DHT22;26539;51.064;6.346;2023-05-16T15:07:26;22.90;36.30
5218;DHT22;26539;51.064;6.346;2023-05-16T15:09:51;23.00;25.70
5218;DHT22;26539;51.064;6.346;2023-05-16T15:12:17;22.90;25.40
5218;DHT22;26539;51.064;6.346;2023-05-16T15:14:42;22.80;25.50
5218;DHT22;26539;51.064;6.346;2023-05-16T15:17:08;22.80;25.10
5218;DHT22;26539;51.064;6.346;2023-05-16T15:19:33;22.80;25.80
5218;DHT22;26539;51.064;6.346;2023-05-16T15:21:59;22.90;26.00
5218;DHT22;26539;51.064;6.346;2023-05-16T15:24:24;22.80;26.00
5218;DHT22;26539;51.064;6.346;2023-05-16T15:26:50;22.70;26.30
5218;DHT22;26539;51.064;6.346;2023-05-16T15:29:16;22.70;26.50
5218;DHT22;26539;51.064;6.346;2023-05-16T15:31:43;22.50;26.60
5218;DHT22;26539;51.064;6.346;2023-05-16T15:34:09;22.20;25.40
5218;DHT22;26539;51.064;6.346;2023-05-16T15:36:35;22.10;25.40
5218;DHT22;26539;51.064;6.346;2023-05-16T15:39:01;22.00;25.00
5218;DHT22;26539;51.064;6.346;2023-05-16T15:41:26;21.90;25.40
5218;DHT22;26539;51.064;6.346;2023-05-16T15:43:52;21.90;25.90
5218;DHT22;26539;51.064;6.346;2023-05-16T15:46:18;21.80;25.90
5218;DHT22;26539;51.064;6.346;2023-05-16T15:48:44;21.60;25.30
5218;DHT22;26539;51.064;6.346;2023-05-16T15:51:12;21.50;25.10
5218;DHT22;26539;51.064;6.346;2023-05-16T15:53:40;21.40;26.20
5218;DHT22;26539;51.064;6.346;2023-05-16T15:56:07;21.20;25.20
5218;DHT22;26539;51.064;6.346;2023-05-16T15:58:32;20.90;24.90
5218;DHT22;26539;51.064;6.346;2023-05-16T16:00:58;20.80;25.10
5218;DHT22;26539;51.064;6.346;2023-05-16T16:03:23;20.60;24.40
5218;DHT22;26539;51.064;6.346;2023-05-16T16:05:49;20.60;25.00